Impacts METAR Board
IDs:

KMDW - Chicago/Midway Intl, IL, US

Updated at: 0800 UTC 23 Oct 2018
Potential Impact None Slight Moderate High
Time 22/20Z 22/21Z 22/22Z 22/23Z 23/00Z 23/01Z 23/02Z 23/03Z 23/04Z 23/05Z 23/06Z 23/07Z 23/08Z
Temp62 63 62 60 57 55 53 54 53 51 47 47 46
Dewpt37 34 35 34 34 34 34 34 34 33 32 31 30
Altim30.02 30.02 30.02 30.01 30.03 30.04 30.05 30.05 30.07 30.08 30.10 30.11 30.12
VIS10 10 10 10 10 10 10 10 10 10 10 10 10
CIG-- -- -- -- -- -- -- -- -- -- -- -- --
CoverFEWFEWFEWCLRCLRCLRCLRCLRCLRCLRCLRCLRCLR
FltCatVFRVFRVFRVFRVFRVFRVFRVFRVFRVFRVFRVFRVFR
WX--------------------------
WDir250260260230240240250250280280280290310
WSpd6 8 7 7 6 8 6 9 9 7 5 6 7
WGst-- -- -- -- -- -- -- -- -- -- -- -- --
Raw hourly METARs
KMDW 221953Z 25006KT 10SM FEW250 17/03 A3002 RMK AO2 SLP169 T01670028
KMDW 222053Z 26008KT 10SM FEW250 17/01 A3002 RMK AO2 SLP167 T01720011 58010
KMDW 222153Z 26007KT 10SM FEW250 17/02 A3002 RMK AO2 SLP167 T01670017
KMDW 222253Z 23007KT 10SM CLR 16/01 A3001 RMK AO2 SLP167 T01560011
KMDW 222353Z 24006KT 10SM CLR 14/01 A3003 RMK AO2 SLP171 T01390011 10172 20139 53003
KMDW 230053Z 24008KT 10SM CLR 13/01 A3004 RMK AO2 SLP178 T01280011
KMDW 230153Z 25006KT 10SM CLR 12/01 A3005 RMK AO2 SLP179 T01170011
KMDW 230253Z 25009KT 10SM CLR 12/01 A3005 RMK AO2 SLP179 T01220011 51009
KMDW 230353Z 28009KT 10SM CLR 12/01 A3007 RMK AO2 SLP185 T01170011
KMDW 230453Z 28007KT 10SM CLR 11/01 A3008 RMK AO2 SLP188 T01060006
KMDW 230553Z 28005KT 10SM CLR 08/00 A3010 RMK AO2 SLP193 T00830000 10139 20083 401720033 51015
KMDW 230653Z 29006KT 10SM CLR 08/M01 A3011 RMK AO2 SLP195 T00831006
KMDW 230753Z 31007KT 10SM CLR 08/M01 A3012 RMK AO2 SLP201 T00781011



Page loaded:  08:25 UTC  |   01:25 AM Pacific  |   02:25 AM Mountain  |   03:25 AM Central  |   04:25 AM Eastern

 

ADVISORIES

FORECASTS

FORECASTS

OBSERVATIONS

USER TOOLS

ABOUT US